KEED/EED METAR and TAF weather

Enter ICAO airport designator
Station Type Date Time Source
KEED METAR 2019/04/18 19:56 UTC NOAA

KEED 181956Z AUTO 01014G20KT 10SM CLR 32/01 A3009 RMK AO2 SLP161 T03170011


Station Type Date Time Source
KEED Decoded METAR 2019/04/18 19:56 UTC NOAA

NEEDLES AIRPORT, CA, United States (KEED) 34-46N 114-37W
Apr 18, 2019 - 03:56 PM EDT / 2019.04.18 1956 UTC
Wind: from the N (010 degrees) at 16 MPH (14 KT) gusting to 23 MPH (20 KT):0
Visibility: 10 mile(s):0
Sky conditions: clear
Temperature: 89.1 F (31.7 C)
Dew Point: 34.0 F (1.1 C)
Relative Humidity: 14%
Pressure (altimeter): 30.09 in. Hg (1018 hPa)
ob: KEED 181956Z AUTO 01014G20KT 10SM CLR 32/01 A3009 RMK AO2 SLP161 T03170011
cycle: 20

Station Type Date Time Source
KEED TAF 2019/04/18 18:36 UTC NOAA

TAF KEED 181733Z 1818/1918 01018G25KT P6SM SKC
FM182300 02008KT P6SM SCT250
FM190200 VRB05KT P6SM SCT250
FM190500 33007KT P6SM SCT250
FM191500 03006KT P6SM FEW250

Example: see airport list